sensor_id;sensor_type;location;lat;lon;timestamp;pressure;altitude;pressure_sealevel;temperature;humidity
73306;BME280;61530;51.158;0.880;2023-07-13T00:00:37;1011.5;;;15.5;35.6573
73306;BME280;61530;51.158;0.880;2023-07-13T00:01:37;1011.5;;;15.4375;35.7097
73306;BME280;61530;51.158;0.880;2023-07-13T00:02:38;1011.5;;;15.4375;35.5287
73306;BME280;61530;51.158;0.880;2023-07-13T00:03:39;1011.5;;;15.4375;36.0222
73306;BME280;61530;51.158;0.880;2023-07-13T00:04:39;1011.54;;;15.4375;35.9564
73306;BME280;61530;51.158;0.880;2023-07-13T00:05:40;1011.5;;;15.375;35.9516
73306;BME280;61530;51.158;0.880;2023-07-13T00:06:41;1011.51;;;15.3125;35.3551
73306;BME280;61530;51.158;0.880;2023-07-13T00:07:41;1011.52;;;15.4375;36.1075
73306;BME280;61530;51.158;0.880;2023-07-13T00:08:42;1011.51;;;15.4375;35.9966
73306;BME280;61530;51.158;0.880;2023-07-13T00:09:43;1011.5;;;15.5;35.634
73306;BME280;61530;51.158;0.880;2023-07-13T00:10:43;1011.5;;;15.5625;35.6807
73306;BME280;61530;51.158;0.880;2023-07-13T00:11:45;1011.52;;;15.625;36.3236
73306;BME280;61530;51.158;0.880;2023-07-13T00:12:46;1011.5;;;15.5625;35.6096
73306;BME280;61530;51.158;0.880;2023-07-13T00:13:47;1011.5;;;15.625;35.6285
73306;BME280;61530;51.158;0.880;2023-07-13T00:14:48;1011.51;;;15.625;35.6227
73306;BME280;61530;51.158;0.880;2023-07-13T00:15:48;1011.5;;;15.6875;35.6908
73306;BME280;61530;51.158;0.880;2023-07-13T00:16:49;1011.49;;;15.625;35.908
73306;BME280;61530;51.158;0.880;2023-07-13T00:17:50;1011.48;;;15.75;35.0833
73306;BME280;61530;51.158;0.880;2023-07-13T00:18:50;1011.5;;;15.6875;35.913
73306;BME280;61530;51.158;0.880;2023-07-13T00:19:51;1011.48;;;15.8125;35.9543
73306;BME280;61530;51.158;0.880;2023-07-13T00:20:52;1011.5;;;15.8125;36.3455
73306;BME280;61530;51.158;0.880;2023-07-13T00:21:52;1011.48;;;15.75;36.3868
73306;BME280;61530;51.158;0.880;2023-07-13T00:22:54;1011.49;;;15.75;35.751
73306;BME280;61530;51.158;0.880;2023-07-13T00:23:54;1011.51;;;15.875;36.1192
73306;BME280;61530;51.158;0.880;2023-07-13T00:24:55;1011.53;;;15.875;36.219
73306;BME280;61530;51.158;0.880;2023-07-13T00:25:55;1011.53;;;15.8125;36.989
73306;BME280;61530;51.158;0.880;2023-07-13T00:26:56;1011.52;;;15.875;36.1366
73306;BME280;61530;51.158;0.880;2023-07-13T00:27:56;1011.49;;;15.875;35.6574
73306;BME280;61530;51.158;0.880;2023-07-13T00:28:57;1011.47;;;15.6875;35.8526
73306;BME280;61530;51.158;0.880;2023-07-13T00:30:00;1011.46;;;15.5;36.0291
73306;BME280;61530;51.158;0.880;2023-07-13T00:31:02;1011.45;;;15.4375;36.2642
73306;BME280;61530;51.158;0.880;2023-07-13T00:32:04;1011.44;;;15.3125;36.7939
73306;BME280;61530;51.158;0.880;2023-07-13T00:33:04;1011.46;;;15.1875;35.965
73306;BME280;61530;51.158;0.880;2023-07-13T00:34:04;1011.49;;;15.25;35.9633
73306;BME280;61530;51.158;0.880;2023-07-13T00:35:06;1011.49;;;15.3125;36.0974
73306;BME280;61530;51.158;0.880;2023-07-13T00:36:06;1011.5;;;15.4375;35.7465
73306;BME280;61530;51.158;0.880;2023-07-13T00:37:07;1011.52;;;15.5;36.2659
73306;BME280;61530;51.158;0.880;2023-07-13T00:38:07;1011.51;;;15.5;35.8343
73306;BME280;61530;51.158;0.880;2023-07-13T00:39:08;1011.52;;;15.4375;35.7699
73306;BME280;61530;51.158;0.880;2023-07-13T00:40:11;1011.51;;;15.4375;35.8046
73306;BME280;61530;51.158;0.880;2023-07-13T00:41:10;1011.52;;;15.5;35.7115
73306;BME280;61530;51.158;0.880;2023-07-13T00:42:10;1011.55;;;15.5625;36.1325
73306;BME280;61530;51.158;0.880;2023-07-13T00:43:13;1011.55;;;15.5625;36.1385
73306;BME280;61530;51.158;0.880;2023-07-13T00:44:14;1011.53;;;15.5625;35.7712
73306;BME280;61530;51.158;0.880;2023-07-13T00:46:21;1011.53;;;15.5;35.9924
73306;BME280;61530;51.158;0.880;2023-07-13T00:51:44;1011.54;;;15.5;35.6189
73306;BME280;61530;51.158;0.880;2023-07-13T00:52:46;1011.56;;;15.3125;36.4601
73306;BME280;61530;51.158;0.880;2023-07-13T00:53:45;1011.55;;;15.3125;35.836
73306;BME280;61530;51.158;0.880;2023-07-13T00:54:46;1011.55;;;15.375;36.0524
73306;BME280;61530;51.158;0.880;2023-07-13T00:55:47;1011.56;;;15.3125;36.5422
73306;BME280;61530;51.158;0.880;2023-07-13T00:56:50;1011.57;;;15.5;35.9696
73306;BME280;61530;51.158;0.880;2023-07-13T00:57:48;1011.57;;;15.4375;35.7484
73306;BME280;61530;51.158;0.880;2023-07-13T00:58:49;1011.57;;;15.4375;36.2216
73306;BME280;61530;51.158;0.880;2023-07-13T00:59:54;1011.54;;;15.4375;36.4199
73306;BME280;61530;51.158;0.880;2023-07-13T01:00:51;1011.56;;;15.5;36.2679
73306;BME280;61530;51.158;0.880;2023-07-13T01:01:51;1011.55;;;15.5;36.7815
73306;BME280;61530;51.158;0.880;2023-07-13T01:02:51;1011.54;;;15.5;36.0934
73306;BME280;61530;51.158;0.880;2023-07-13T01:03:52;1011.55;;;15.5625;36.4369
73306;BME280;61530;51.158;0.880;2023-07-13T01:04:52;1011.53;;;15.5625;36.1057
73306;BME280;61530;51.158;0.880;2023-07-13T01:05:53;1011.52;;;15.5;35.9078
73306;BME280;61530;51.158;0.880;2023-07-13T01:06:54;1011.55;;;15.5;35.7082
73306;BME280;61530;51.158;0.880;2023-07-13T01:07:54;1011.55;;;15.375;36.0354
73306;BME280;61530;51.158;0.880;2023-07-13T01:08:58;1011.57;;;15.5625;36.2807
73306;BME280;61530;51.158;0.880;2023-07-13T01:09:57;1011.57;;;15.5;35.9657
73306;BME280;61530;51.158;0.880;2023-07-13T01:10:58;1011.57;;;15.5;36.0054
73306;BME280;61530;51.158;0.880;2023-07-13T01:11:59;1011.58;;;15.5;35.3936
73306;BME280;61530;51.158;0.880;2023-07-13T01:13:02;1011.57;;;15.5;36.1061
73306;BME280;61530;51.158;0.880;2023-07-13T01:14:03;1011.57;;;15.5;35.9433
73306;BME280;61530;51.158;0.880;2023-07-13T01:15:05;1011.56;;;15.4375;36.1759
73306;BME280;61530;51.158;0.880;2023-07-13T01:16:19;1011.56;;;15.5;36.3862
73306;BME280;61530;51.158;0.880;2023-07-13T01:17:04;1011.55;;;15.375;35.8438
73306;BME280;61530;51.158;0.880;2023-07-13T01:18:06;1011.59;;;15.3125;35.8036
73306;BME280;61530;51.158;0.880;2023-07-13T01:19:14;1011.56;;;15.25;36.0129
73306;BME280;61530;51.158;0.880;2023-07-13T01:20:08;1011.53;;;15.3125;35.8264
73306;BME280;61530;51.158;0.880;2023-07-13T01:21:07;1011.56;;;15.3125;35.8555
73306;BME280;61530;51.158;0.880;2023-07-13T01:22:11;1011.58;;;15.125;35.3491
73306;BME280;61530;51.158;0.880;2023-07-13T01:23:10;1011.59;;;15.0625;35.2686
73306;BME280;61530;51.158;0.880;2023-07-13T01:24:09;1011.61;;;15.0;35.4783
73306;BME280;61530;51.158;0.880;2023-07-13T01:25:10;1011.6;;;14.875;35.7867
73306;BME280;61530;51.158;0.880;2023-07-13T01:26:10;1011.62;;;15.0;35.5241
73306;BME280;61530;51.158;0.880;2023-07-13T01:27:13;1011.6;;;15.0;35.8629
73306;BME280;61530;51.158;0.880;2023-07-13T01:28:12;1011.6;;;15.0625;36.259
73306;BME280;61530;51.158;0.880;2023-07-13T01:29:12;1011.58;;;15.125;36.2121
73306;BME280;61530;51.158;0.880;2023-07-13T01:30:13;1011.57;;;15.125;35.9138
73306;BME280;61530;51.158;0.880;2023-07-13T01:31:14;1011.6;;;15.125;36.2469
73306;BME280;61530;51.158;0.880;2023-07-13T01:32:17;1011.59;;;15.1875;35.6638
73306;BME280;61530;51.158;0.880;2023-07-13T01:33:17;1011.6;;;15.1875;35.9081
73306;BME280;61530;51.158;0.880;2023-07-13T01:34:17;1011.58;;;15.125;35.9777
73306;BME280;61530;51.158;0.880;2023-07-13T01:35:17;1011.62;;;15.25;35.2791
73306;BME280;61530;51.158;0.880;2023-07-13T01:36:19;1011.63;;;15.1875;35.6283
73306;BME280;61530;51.158;0.880;2023-07-13T01:37:20;1011.65;;;15.125;35.3262
73306;BME280;61530;51.158;0.880;2023-07-13T01:38:23;1011.66;;;15.0625;35.617
73306;BME280;61530;51.158;0.880;2023-07-13T01:39:21;1011.63;;;15.125;36.462
73306;BME280;61530;51.158;0.880;2023-07-13T01:40:22;1011.63;;;15.0625;35.3127
73306;BME280;61530;51.158;0.880;2023-07-13T01:41:22;1011.65;;;15.125;35.6399
73306;BME280;61530;51.158;0.880;2023-07-13T01:42:23;1011.62;;;15.0625;36.213
73306;BME280;61530;51.158;0.880;2023-07-13T01:43:23;1011.63;;;15.0;35.5019
73306;BME280;61530;51.158;0.880;2023-07-13T01:44:24;1011.63;;;14.875;35.5184
73306;BME280;61530;51.158;0.880;2023-07-13T01:45:25;1011.64;;;14.9375;36.0498
73306;BME280;61530;51.158;0.880;2023-07-13T01:46:26;1011.64;;;14.9375;35.6136
73306;BME280;61530;51.158;0.880;2023-07-13T01:47:27;1011.65;;;14.9375;35.6659
73306;BME280;61530;51.158;0.880;2023-07-13T01:48:28;1011.66;;;14.9375;35.8932
73306;BME280;61530;51.158;0.880;2023-07-13T01:49:28;1011.67;;;15.0;35.9212
73306;BME280;61530;51.158;0.880;2023-07-13T01:50:29;1011.69;;;15.0;36.0676
73306;BME280;61530;51.158;0.880;2023-07-13T01:51:30;1011.72;;;15.0;36.0976
73306;BME280;61530;51.158;0.880;2023-07-13T01:52:30;1011.73;;;15.0;36.2676
73306;BME280;61530;51.158;0.880;2023-07-13T01:53:31;1011.76;;;15.0625;36.3729
73306;BME280;61530;51.158;0.880;2023-07-13T01:54:32;1011.77;;;15.0;36.1348
73306;BME280;61530;51.158;0.880;2023-07-13T01:55:33;1011.79;;;15.0625;35.9079
73306;BME280;61530;51.158;0.880;2023-07-13T01:56:33;1011.81;;;14.875;35.6505
73306;BME280;61530;51.158;0.880;2023-07-13T01:57:34;1011.83;;;14.9375;36.1447
73306;BME280;61530;51.158;0.880;2023-07-13T01:58:34;1011.85;;;14.8125;35.4984
73306;BME280;61530;51.158;0.880;2023-07-13T01:59:35;1011.84;;;14.6875;35.8294
73306;BME280;61530;51.158;0.880;2023-07-13T02:00:36;1011.83;;;14.6875;35.8476
73306;BME280;61530;51.158;0.880;2023-07-13T02:01:36;1011.81;;;14.8125;35.7213
73306;BME280;61530;51.158;0.880;2023-07-13T02:02:37;1011.82;;;14.8125;36.1232
73306;BME280;61530;51.158;0.880;2023-07-13T02:03:38;1011.82;;;14.8125;35.5695
73306;BME280;61530;51.158;0.880;2023-07-13T02:04:40;1011.81;;;14.8125;36.0947
73306;BME280;61530;51.158;0.880;2023-07-13T02:05:39;1011.78;;;14.6875;36.2939
73306;BME280;61530;51.158;0.880;2023-07-13T02:06:40;1011.79;;;14.8125;35.9741
73306;BME280;61530;51.158;0.880;2023-07-13T02:07:41;1011.81;;;14.6875;36.4924
73306;BME280;61530;51.158;0.880;2023-07-13T02:08:41;1011.81;;;14.75;36.4524
73306;BME280;61530;51.158;0.880;2023-07-13T02:09:42;1011.79;;;14.8125;36.3583
73306;BME280;61530;51.158;0.880;2023-07-13T02:10:42;1011.77;;;14.75;35.6361
73306;BME280;61530;51.158;0.880;2023-07-13T02:11:43;1011.74;;;14.6875;35.9741
73306;BME280;61530;51.158;0.880;2023-07-13T02:12:44;1011.76;;;14.6875;35.6113
73306;BME280;61530;51.158;0.880;2023-07-13T02:13:44;1011.77;;;14.6875;36.3685
73306;BME280;61530;51.158;0.880;2023-07-13T02:14:46;1011.74;;;14.625;36.2652
73306;BME280;61530;51.158;0.880;2023-07-13T02:15:50;1011.76;;;14.6875;36.2131
73306;BME280;61530;51.158;0.880;2023-07-13T02:16:47;1011.75;;;14.625;35.8454
73306;BME280;61530;51.158;0.880;2023-07-13T02:17:48;1011.77;;;14.5625;35.7931
73306;BME280;61530;51.158;0.880;2023-07-13T02:18:49;1011.74;;;14.4375;36.2653
73306;BME280;61530;51.158;0.880;2023-07-13T02:19:49;1011.77;;;14.5625;36.0676
73306;BME280;61530;51.158;0.880;2023-07-13T02:20:50;1011.76;;;14.625;36.4681
73306;BME280;61530;51.158;0.880;2023-07-13T02:21:51;1011.74;;;14.5625;36.2244
73306;BME280;61530;51.158;0.880;2023-07-13T02:22:51;1011.75;;;14.75;35.735
73306;BME280;61530;51.158;0.880;2023-07-13T02:23:52;1011.76;;;14.6875;35.537
73306;BME280;61530;51.158;0.880;2023-07-13T02:24:53;1011.76;;;14.5625;36.0328
73306;BME280;61530;51.158;0.880;2023-07-13T02:25:55;1011.76;;;14.5625;36.1729
73306;BME280;61530;51.158;0.880;2023-07-13T02:26:54;1011.73;;;14.625;36.0035
73306;BME280;61530;51.158;0.880;2023-07-13T02:27:55;1011.73;;;14.6875;36.0439
73306;BME280;61530;51.158;0.880;2023-07-13T02:28:59;1011.77;;;14.6875;36.5284
73306;BME280;61530;51.158;0.880;2023-07-13T02:30:00;1011.76;;;14.625;35.8178
73306;BME280;61530;51.158;0.880;2023-07-13T02:31:05;1011.72;;;14.5625;35.6909
73306;BME280;61530;51.158;0.880;2023-07-13T02:32:01;1011.7;;;14.5;35.9857
73306;BME280;61530;51.158;0.880;2023-07-13T02:33:02;1011.74;;;14.5;35.7951
73306;BME280;61530;51.158;0.880;2023-07-13T02:34:05;1011.76;;;14.5;35.8178
73306;BME280;61530;51.158;0.880;2023-07-13T02:35:06;1011.74;;;14.4375;35.6439
73306;BME280;61530;51.158;0.880;2023-07-13T02:36:06;1011.73;;;14.4375;35.3711
73306;BME280;61530;51.158;0.880;2023-07-13T02:37:06;1011.7;;;14.25;35.7911
73306;BME280;61530;51.158;0.880;2023-07-13T02:38:08;1011.68;;;14.3125;35.9701
73306;BME280;61530;51.158;0.880;2023-07-13T02:39:09;1011.7;;;14.25;35.8425
73306;BME280;61530;51.158;0.880;2023-07-13T02:40:09;1011.69;;;14.3125;36.0461
73306;BME280;61530;51.158;0.880;2023-07-13T02:41:09;1011.7;;;14.3125;35.9353
73306;BME280;61530;51.158;0.880;2023-07-13T02:42:10;1011.7;;;14.375;36.2375
73306;BME280;61530;51.158;0.880;2023-07-13T02:43:11;1011.69;;;14.3125;36.0632
73306;BME280;61530;51.158;0.880;2023-07-13T02:44:13;1011.68;;;14.375;35.6626
73306;BME280;61530;51.158;0.880;2023-07-13T02:45:12;1011.71;;;14.25;35.4757
73306;BME280;61530;51.158;0.880;2023-07-13T02:46:13;1011.7;;;14.25;36.0685
73306;BME280;61530;51.158;0.880;2023-07-13T02:47:13;1011.68;;;14.375;36.2318
73306;BME280;61530;51.158;0.880;2023-07-13T02:48:16;1011.69;;;14.1875;35.348
73306;BME280;61530;51.158;0.880;2023-07-13T02:49:17;1011.7;;;14.1875;35.7663
73306;BME280;61530;51.158;0.880;2023-07-13T02:50:17;1011.72;;;14.1875;35.7083
73306;BME280;61530;51.158;0.880;2023-07-13T02:51:18;1011.72;;;14.1875;35.8085
73306;BME280;61530;51.158;0.880;2023-07-13T02:52:19;1011.72;;;14.1875;35.6756
73306;BME280;61530;51.158;0.880;2023-07-13T02:53:19;1011.72;;;14.25;36.1119
73306;BME280;61530;51.158;0.880;2023-07-13T02:54:20;1011.71;;;14.25;35.2094
73306;BME280;61530;51.158;0.880;2023-07-13T02:55:21;1011.72;;;14.1875;35.7032
73306;BME280;61530;51.158;0.880;2023-07-13T02:56:24;1011.7;;;14.25;35.2547
73306;BME280;61530;51.158;0.880;2023-07-13T02:57:22;1011.71;;;14.1875;35.7271
73306;BME280;61530;51.158;0.880;2023-07-13T02:58:23;1011.7;;;14.25;35.5466
73306;BME280;61530;51.158;0.880;2023-07-13T02:59:23;1011.72;;;14.1875;35.517
73306;BME280;61530;51.158;0.880;2023-07-13T03:00:24;1011.73;;;14.1875;35.6102
73306;BME280;61530;51.158;0.880;2023-07-13T03:01:25;1011.7;;;14.25;35.4894
73306;BME280;61530;51.158;0.880;2023-07-13T03:02:25;1011.72;;;14.1875;35.5524
73306;BME280;61530;51.158;0.880;2023-07-13T03:03:26;1011.73;;;14.1875;35.488
73306;BME280;61530;51.158;0.880;2023-07-13T03:04:27;1011.75;;;14.1875;36.3046
73306;BME280;61530;51.158;0.880;2023-07-13T03:05:27;1011.74;;;14.25;35.816
73306;BME280;61530;51.158;0.880;2023-07-13T03:06:28;1011.74;;;14.1875;35.8622
73306;BME280;61530;51.158;0.880;2023-07-13T03:07:30;1011.75;;;14.25;36.0707
73306;BME280;61530;51.158;0.880;2023-07-13T03:08:29;1011.73;;;14.25;35.9136
73306;BME280;61530;51.158;0.880;2023-07-13T03:09:32;1011.7;;;14.25;35.5882
73306;BME280;61530;51.158;0.880;2023-07-13T03:10:31;1011.73;;;14.25;36.0365
73306;BME280;61530;51.158;0.880;2023-07-13T03:11:31;1011.78;;;14.25;35.9895
73306;BME280;61530;51.158;0.880;2023-07-13T03:12:32;1011.77;;;14.25;35.9944
73306;BME280;61530;51.158;0.880;2023-07-13T03:13:33;1011.81;;;14.25;35.3786
73306;BME280;61530;51.158;0.880;2023-07-13T03:14:33;1011.81;;;14.375;35.8386
73306;BME280;61530;51.158;0.880;2023-07-13T03:15:34;1011.8;;;14.25;36.5493
73306;BME280;61530;51.158;0.880;2023-07-13T03:16:35;1011.83;;;14.3125;35.7236
73306;BME280;61530;51.158;0.880;2023-07-13T03:17:35;1011.81;;;14.1875;35.2817
73306;BME280;61530;51.158;0.880;2023-07-13T03:18:37;1011.83;;;14.0;35.3865
73306;BME280;61530;51.158;0.880;2023-07-13T03:19:37;1011.82;;;14.0;35.4283
73306;BME280;61530;51.158;0.880;2023-07-13T03:20:37;1011.84;;;14.0;35.8692
73306;BME280;61530;51.158;0.880;2023-07-13T03:21:38;1011.83;;;14.0;35.666
73306;BME280;61530;51.158;0.880;2023-07-13T03:22:39;1011.85;;;14.0625;36.6434
73306;BME280;61530;51.158;0.880;2023-07-13T03:23:42;1011.82;;;14.0;35.574
73306;BME280;61530;51.158;0.880;2023-07-13T03:24:42;1011.82;;;14.125;35.4689
73306;BME280;61530;51.158;0.880;2023-07-13T03:25:43;1011.83;;;14.0625;35.8289
73306;BME280;61530;51.158;0.880;2023-07-13T03:26:44;1011.85;;;14.0;35.8581
73306;BME280;61530;51.158;0.880;2023-07-13T03:27:44;1011.84;;;14.0625;35.3168
73306;BME280;61530;51.158;0.880;2023-07-13T03:28:46;1011.83;;;14.0625;35.4578
73306;BME280;61530;51.158;0.880;2023-07-13T03:29:46;1011.81;;;13.9375;35.4287
73306;BME280;61530;51.158;0.880;2023-07-13T03:30:46;1011.85;;;13.9375;35.7709
73306;BME280;61530;51.158;0.880;2023-07-13T03:31:47;1011.83;;;14.0;36.0926
73306;BME280;61530;51.158;0.880;2023-07-13T03:32:48;1011.84;;;14.0;35.9526
73306;BME280;61530;51.158;0.880;2023-07-13T03:33:49;1011.87;;;14.0625;36.0745
73306;BME280;61530;51.158;0.880;2023-07-13T03:34:49;1011.88;;;14.0625;35.2664
73306;BME280;61530;51.158;0.880;2023-07-13T03:35:50;1011.86;;;14.0;35.6394
73306;BME280;61530;51.158;0.880;2023-07-13T03:36:54;1011.9;;;14.0;35.551
73306;BME280;61530;51.158;0.880;2023-07-13T03:37:51;1011.89;;;14.0;35.6036
73306;BME280;61530;51.158;0.880;2023-07-13T03:38:55;1011.88;;;13.9375;35.5857
73306;BME280;61530;51.158;0.880;2023-07-13T03:39:53;1011.88;;;14.0;35.8293
73306;BME280;61530;51.158;0.880;2023-07-13T03:40:54;1011.87;;;13.9375;35.1551
73306;BME280;61530;51.158;0.880;2023-07-13T03:41:54;1011.88;;;13.875;35.5166
73306;BME280;61530;51.158;0.880;2023-07-13T03:42:55;1011.89;;;13.875;35.7714
73306;BME280;61530;51.158;0.880;2023-07-13T03:43:55;1011.9;;;13.875;35.7726
73306;BME280;61530;51.158;0.880;2023-07-13T03:44:56;1011.93;;;13.875;35.7827
73306;BME280;61530;51.158;0.880;2023-07-13T03:45:57;1011.92;;;13.9375;36.272
73306;BME280;61530;51.158;0.880;2023-07-13T03:46:57;1011.93;;;13.9375;35.7136
73306;BME280;61530;51.158;0.880;2023-07-13T03:47:58;1011.93;;;13.875;35.6205
73306;BME280;61530;51.158;0.880;2023-07-13T03:48:59;1011.92;;;13.9375;36.0345
73306;BME280;61530;51.158;0.880;2023-07-13T03:49:59;1011.89;;;13.9375;36.7675
73306;BME280;61530;51.158;0.880;2023-07-13T03:51:00;1011.9;;;13.9375;36.4132
73306;BME280;61530;51.158;0.880;2023-07-13T03:52:02;1011.88;;;13.875;36.2682
73306;BME280;61530;51.158;0.880;2023-07-13T03:53:02;1011.88;;;14.0;36.0538
73306;BME280;61530;51.158;0.880;2023-07-13T03:54:03;1011.87;;;14.0;35.9838
73306;BME280;61530;51.158;0.880;2023-07-13T03:55:03;1011.89;;;13.9375;35.7093
73306;BME280;61530;51.158;0.880;2023-07-13T03:56:04;1011.9;;;13.875;35.3227
73306;BME280;61530;51.158;0.880;2023-07-13T03:57:05;1011.91;;;13.75;35.7116
73306;BME280;61530;51.158;0.880;2023-07-13T03:58:39;1011.9;;;13.5625;35.682
73306;BME280;61530;51.158;0.880;2023-07-13T03:59:05;1011.89;;;13.5;35.7515
73306;BME280;61530;51.158;0.880;2023-07-13T04:00:07;1011.91;;;13.5625;35.8741
73306;BME280;61530;51.158;0.880;2023-07-13T04:01:09;1011.91;;;13.625;35.9266
73306;BME280;61530;51.158;0.880;2023-07-13T04:02:07;1011.95;;;13.625;35.8154
73306;BME280;61530;51.158;0.880;2023-07-13T04:03:08;1011.99;;;13.5625;36.0189
73306;BME280;61530;51.158;0.880;2023-07-13T04:04:09;1012.01;;;13.6875;36.1811
73306;BME280;61530;51.158;0.880;2023-07-13T04:05:09;1012.06;;;13.6875;35.8669
73306;BME280;61530;51.158;0.880;2023-07-13T04:06:15;1012.08;;;13.75;36.1747
73306;BME280;61530;51.158;0.880;2023-07-13T04:07:11;1012.07;;;13.75;35.7858
73306;BME280;61530;51.158;0.880;2023-07-13T04:08:11;1012.11;;;13.8125;36.0293
73306;BME280;61530;51.158;0.880;2023-07-13T04:09:12;1012.12;;;13.8125;35.8376
73306;BME280;61530;51.158;0.880;2023-07-13T04:10:13;1012.13;;;13.9375;35.5067
73306;BME280;61530;51.158;0.880;2023-07-13T04:11:14;1012.13;;;13.8125;35.7456
73306;BME280;61530;51.158;0.880;2023-07-13T04:12:14;1012.12;;;13.5625;35.4005
73306;BME280;61530;51.158;0.880;2023-07-13T04:13:15;1012.14;;;13.25;35.3893
73306;BME280;61530;51.158;0.880;2023-07-13T04:14:16;1012.17;;;13.0;35.8328
73306;BME280;61530;51.158;0.880;2023-07-13T04:15:16;1012.15;;;12.875;35.7916
73306;BME280;61530;51.158;0.880;2023-07-13T04:16:18;1012.15;;;12.875;35.8948
73306;BME280;61530;51.158;0.880;2023-07-13T04:17:18;1012.13;;;12.9375;35.8306
73306;BME280;61530;51.158;0.880;2023-07-13T04:18:19;1012.14;;;13.0;36.2601
73306;BME280;61530;51.158;0.880;2023-07-13T04:19:19;1012.14;;;13.125;36.6209
73306;BME280;61530;51.158;0.880;2023-07-13T04:20:20;1012.14;;;13.25;36.2427
73306;BME280;61530;51.158;0.880;2023-07-13T04:21:21;1012.18;;;13.1875;36.5331
73306;BME280;61530;51.158;0.880;2023-07-13T04:22:21;1012.16;;;13.4375;36.2194
73306;BME280;61530;51.158;0.880;2023-07-13T04:23:22;1012.18;;;13.375;36.5271
73306;BME280;61530;51.158;0.880;2023-07-13T04:24:22;1012.19;;;13.4375;35.929
73306;BME280;61530;51.158;0.880;2023-07-13T04:25:23;1012.2;;;13.375;36.2884
73306;BME280;61530;51.158;0.880;2023-07-13T04:26:24;1012.2;;;13.5;35.8355
73306;BME280;61530;51.158;0.880;2023-07-13T04:27:24;1012.22;;;13.5;36.0502
73306;BME280;61530;51.158;0.880;2023-07-13T04:28:26;1012.26;;;13.4375;35.8235
73306;BME280;61530;51.158;0.880;2023-07-13T04:29:26;1012.26;;;13.4375;35.795
73306;BME280;61530;51.158;0.880;2023-07-13T04:30:27;1012.27;;;13.375;36.0105
73306;BME280;61530;51.158;0.880;2023-07-13T04:31:27;1012.29;;;13.4375;36.6435
73306;BME280;61530;51.158;0.880;2023-07-13T04:32:28;1012.3;;;13.4375;36.5855
73306;BME280;61530;51.158;0.880;2023-07-13T04:33:28;1012.34;;;13.5625;36.7528
73306;BME280;61530;51.158;0.880;2023-07-13T04:34:29;1012.32;;;13.5625;36.1605
73306;BME280;61530;51.158;0.880;2023-07-13T04:35:30;1012.33;;;13.625;35.9744
73306;BME280;61530;51.158;0.880;2023-07-13T04:36:30;1012.36;;;13.625;36.6076
73306;BME280;61530;51.158;0.880;2023-07-13T04:37:31;1012.39;;;13.6875;36.446
73306;BME280;61530;51.158;0.880;2023-07-13T04:38:33;1012.33;;;13.6875;36.1263
73306;BME280;61530;51.158;0.880;2023-07-13T04:39:33;1012.36;;;13.75;36.4047
73306;BME280;61530;51.158;0.880;2023-07-13T04:40:33;1012.36;;;13.75;36.4979
73306;BME280;61530;51.158;0.880;2023-07-13T04:41:35;1012.39;;;13.75;36.4112
73306;BME280;61530;51.158;0.880;2023-07-13T04:42:35;1012.41;;;13.8125;36.6261
73306;BME280;61530;51.158;0.880;2023-07-13T04:43:37;1012.4;;;13.875;36.7297
73306;BME280;61530;51.158;0.880;2023-07-13T04:44:37;1012.42;;;13.8125;36.7886
73306;BME280;61530;51.158;0.880;2023-07-13T04:45:38;1012.39;;;13.8125;36.8404
73306;BME280;61530;51.158;0.880;2023-07-13T04:46:39;1012.4;;;13.875;36.6134
73306;BME280;61530;51.158;0.880;2023-07-13T04:47:40;1012.44;;;13.8125;36.625
73306;BME280;61530;51.158;0.880;2023-07-13T04:48:41;1012.47;;;13.9375;36.6599
73306;BME280;61530;51.158;0.880;2023-07-13T04:49:41;1012.46;;;13.9375;36.6419
73306;BME280;61530;51.158;0.880;2023-07-13T04:50:42;1012.46;;;13.875;36.6949
73306;BME280;61530;51.158;0.880;2023-07-13T04:51:45;1012.45;;;13.8125;36.9623
73306;BME280;61530;51.158;0.880;2023-07-13T04:52:46;1012.49;;;13.875;37.0089
73306;BME280;61530;51.158;0.880;2023-07-13T04:53:46;1012.5;;;13.875;37.0263
73306;BME280;61530;51.158;0.880;2023-07-13T04:54:47;1012.53;;;13.875;36.9564
73306;BME280;61530;51.158;0.880;2023-07-13T04:55:48;1012.52;;;13.875;36.8458
73306;BME280;61530;51.158;0.880;2023-07-13T04:56:49;1012.53;;;13.875;37.1946
73306;BME280;61530;51.158;0.880;2023-07-13T04:57:51;1012.53;;;13.9375;37.0665
73306;BME280;61530;51.158;0.880;2023-07-13T04:58:51;1012.5;;;14.0;37.3851
73306;BME280;61530;51.158;0.880;2023-07-13T04:59:52;1012.51;;;13.9375;37.2979
73306;BME280;61530;51.158;0.880;2023-07-13T05:00:53;1012.53;;;14.0;37.3618
73306;BME280;61530;51.158;0.880;2023-07-13T05:01:54;1012.53;;;14.0625;37.2625
73306;BME280;61530;51.158;0.880;2023-07-13T05:02:55;1012.55;;;14.0625;36.9837
73306;BME280;61530;51.158;0.880;2023-07-13T05:03:55;1012.55;;;14.0;36.9776
73306;BME280;61530;51.158;0.880;2023-07-13T05:04:56;1012.54;;;14.0;37.4018
73306;BME280;61530;51.158;0.880;2023-07-13T05:05:58;1012.55;;;14.0625;37.5467
73306;BME280;61530;51.158;0.880;2023-07-13T05:06:57;1012.54;;;14.0625;37.6691
73306;BME280;61530;51.158;0.880;2023-07-13T05:07:58;1012.51;;;14.125;37.8895
73306;BME280;61530;51.158;0.880;2023-07-13T05:08:58;1012.51;;;14.125;37.7261
73306;BME280;61530;51.158;0.880;2023-07-13T05:09:59;1012.51;;;14.1875;37.8655
73306;BME280;61530;51.158;0.880;2023-07-13T05:11:01;1012.54;;;14.1875;37.6972
73306;BME280;61530;51.158;0.880;2023-07-13T05:12:01;1012.55;;;14.1875;37.767
73306;BME280;61530;51.158;0.880;2023-07-13T05:13:02;1012.54;;;14.1875;37.8192
73306;BME280;61530;51.158;0.880;2023-07-13T05:14:03;1012.54;;;14.25;37.5403
73306;BME280;61530;51.158;0.880;2023-07-13T05:15:04;1012.54;;;14.25;37.9354
73306;BME280;61530;51.158;0.880;2023-07-13T05:16:05;1012.55;;;14.3125;37.7023
73306;BME280;61530;51.158;0.880;2023-07-13T05:17:05;1012.55;;;14.3125;37.6675
73306;BME280;61530;51.158;0.880;2023-07-13T05:18:05;1012.55;;;14.25;37.755
73306;BME280;61530;51.158;0.880;2023-07-13T05:19:06;1012.57;;;14.3125;38.1733
73306;BME280;61530;51.158;0.880;2023-07-13T05:20:08;1012.57;;;14.3125;37.9054